createdAt,value
2019-02-07T00:02:21.751Z,52.60
2019-02-07T00:04:52.865Z,55.40
2019-02-07T00:07:24.684Z,55.60
2019-02-07T00:09:56.473Z,51.00
2019-02-07T00:12:27.271Z,53.60
2019-02-07T00:14:57.847Z,50.40
2019-02-07T00:17:28.634Z,45.00
2019-02-07T00:20:00.328Z,51.60
2019-02-07T00:22:31.142Z,54.25
2019-02-07T00:25:01.901Z,45.00
2019-02-07T00:27:32.724Z,50.40
2019-02-07T00:30:03.406Z,52.60
2019-02-07T00:32:35.171Z,40.00
2019-02-07T00:35:06.292Z,42.50
2019-02-07T00:37:36.961Z,50.50
2019-02-07T00:40:10.980Z,44.50
2019-02-07T00:42:41.683Z,53.80
2019-02-07T00:45:13.685Z,49.25
2019-02-07T00:47:44.579Z,46.50
2019-02-07T00:50:15.283Z,50.00
2019-02-07T00:52:46.164Z,50.75
2019-02-07T00:55:16.950Z,44.60
2019-02-07T00:57:47.772Z,44.60
2019-02-07T01:00:20.859Z,49.60
2019-02-07T01:02:51.559Z,49.25
2019-02-07T01:05:23.025Z,38.60
2019-02-07T01:07:53.540Z,52.00
2019-02-07T01:10:25.099Z,49.25
2019-02-07T01:12:56.029Z,45.00
2019-02-07T01:15:27.208Z,48.20
2019-02-07T01:17:58.011Z,49.60
2019-02-07T01:20:28.781Z,46.60
2019-02-07T01:22:59.768Z,56.20
2019-02-07T01:25:30.661Z,36.80
2019-02-07T01:28:21.639Z,48.80
2019-02-07T01:30:52.412Z,44.00
2019-02-07T01:33:23.404Z,43.60
2019-02-07T01:35:54.199Z,48.25
2019-02-07T01:38:24.974Z,41.80
2019-02-07T01:40:55.834Z,49.20
2019-02-07T01:43:26.588Z,34.80
2019-02-07T01:45:57.596Z,43.80
2019-02-07T01:48:28.405Z,40.60
2019-02-07T01:50:59.181Z,37.00
2019-02-07T01:53:29.984Z,46.60
2019-02-07T01:56:01.679Z,42.40
2019-02-07T01:58:32.379Z,52.00
2019-02-07T02:01:03.149Z,44.80
2019-02-07T02:03:33.959Z,44.80
2019-02-07T02:06:04.857Z,45.80
2019-02-07T02:08:35.609Z,45.00
2019-02-07T02:11:06.482Z,41.50
2019-02-07T02:13:37.387Z,40.80
2019-02-07T02:16:08.084Z,46.60
2019-02-07T02:18:38.979Z,38.00
2019-02-07T02:21:09.720Z,34.50
2019-02-07T02:23:40.809Z,52.00
2019-02-07T02:26:11.923Z,35.60
2019-02-07T02:28:42.681Z,49.40
2019-02-07T02:31:13.469Z,42.50
2019-02-07T02:33:44.255Z,51.20
2019-02-07T02:36:15.072Z,50.25
2019-02-07T02:38:45.859Z,46.40
2019-02-07T02:41:16.607Z,45.20
2019-02-07T02:43:47.491Z,46.50
2019-02-07T02:46:18.185Z,43.60
2019-02-07T02:48:49.095Z,52.40
2019-02-07T02:51:19.961Z,41.25
2019-02-07T02:53:52.505Z,46.25
2019-02-07T02:56:23.367Z,47.25
2019-02-07T02:58:54.070Z,37.00
2019-02-07T03:01:38.856Z,49.50
2019-02-07T03:04:27.591Z,47.80
2019-02-07T03:07:32.731Z,46.60
2019-02-07T03:10:28.757Z,44.50
2019-02-07T03:13:30.519Z,42.00
2019-02-07T03:16:23.106Z,44.00
2019-02-07T03:19:20.626Z,38.50
2019-02-07T03:22:06.614Z,41.00
2019-02-07T03:25:11.553Z,36.50
2019-02-07T03:28:16.797Z,47.50
2019-02-07T03:31:04.113Z,54.00
2019-02-07T03:33:44.883Z,43.00
2019-02-07T03:36:29.747Z,49.80
2019-02-07T03:39:19.729Z,47.80
2019-02-07T03:42:12.787Z,43.00
2019-02-07T03:45:20.895Z,44.50
2019-02-07T03:48:13.766Z,46.60
2019-02-07T03:51:02.297Z,48.00
2019-02-07T03:54:10.201Z,44.00
2019-02-07T03:56:59.881Z,47.80
2019-02-07T03:59:58.383Z,37.00
2019-02-07T04:02:53.982Z,47.50
2019-02-07T04:05:42.767Z,41.00
2019-02-07T04:08:44.496Z,37.00
2019-02-07T04:11:46.361Z,41.50
2019-02-07T04:14:45.253Z,40.25
2019-02-07T04:17:38.218Z,36.00
2019-02-07T04:20:16.107Z,37.00
2019-02-07T04:23:08.960Z,43.50
2019-02-07T04:25:58.029Z,36.40
2019-02-07T04:28:47.087Z,36.00
2019-02-07T04:31:43.009Z,37.50
2019-02-07T04:34:32.686Z,39.50
2019-02-07T04:37:30.758Z,45.20
2019-02-07T04:40:22.997Z,43.40
2019-02-07T04:43:21.991Z,33.60
2019-02-07T04:46:09.621Z,40.20
2019-02-07T04:49:08.616Z,34.80
2019-02-07T04:51:57.270Z,38.00
2019-02-07T04:54:41.826Z,45.40
2019-02-07T04:57:30.582Z,37.60
2019-02-07T05:00:19.236Z,39.40
2019-02-07T05:03:07.787Z,41.80
2019-02-07T05:06:06.478Z,39.00
2019-02-07T05:08:44.684Z,39.00
2019-02-07T05:11:30.982Z,34.40
2019-02-07T05:14:20.044Z,35.50
2019-02-07T05:17:09.823Z,37.80
2019-02-07T05:19:59.192Z,38.00
2019-02-07T05:22:52.864Z,39.80
2019-02-07T05:25:54.855Z,37.00
2019-02-07T05:28:47.475Z,41.00
2019-02-07T05:31:33.778Z,41.20
2019-02-07T05:34:29.501Z,40.20
2019-02-07T05:37:25.108Z,37.25
2019-02-07T05:40:15.605Z,37.00
2019-02-07T05:43:04.361Z,34.50
2019-02-07T05:46:06.224Z,36.50
2019-02-07T05:49:05.832Z,42.00
2019-02-07T05:52:04.726Z,40.00
2019-02-07T05:54:53.487Z,33.00
2019-02-07T05:57:52.071Z,41.40
2019-02-07T06:00:35.292Z,37.80
2019-02-07T06:03:23.331Z,39.75
2019-02-07T06:06:28.267Z,36.40
2019-02-07T06:09:21.546Z,37.25
2019-02-07T06:12:20.017Z,40.75
2019-02-07T06:15:09.791Z,41.50
2019-02-07T06:18:18.108Z,41.75
2019-02-07T06:21:12.085Z,35.20
2019-02-07T06:24:01.933Z,40.80
2019-02-07T06:26:53.711Z,38.00
2019-02-07T06:29:43.369Z,33.50
2019-02-07T06:32:30.791Z,38.60
2019-02-07T06:35:14.650Z,36.00
2019-02-07T06:38:03.093Z,41.60
2019-02-07T06:40:58.083Z,36.00
2019-02-07T06:43:48.067Z,40.80
2019-02-07T06:46:36.514Z,43.25
2019-02-07T06:49:25.374Z,34.40
2019-02-07T06:52:15.049Z,33.00
2019-02-07T06:55:04.830Z,36.00
2019-02-07T06:57:58.708Z,44.40
2019-02-07T07:00:48.075Z,39.00
2019-02-07T07:03:26.793Z,35.00
2019-02-07T07:06:15.038Z,38.50
2019-02-07T07:09:23.067Z,35.00
2019-02-07T07:12:11.821Z,40.80
2019-02-07T07:15:00.283Z,34.00
2019-02-07T07:17:59.448Z,36.75
2019-02-07T07:20:49.230Z,35.20
2019-02-07T07:23:35.016Z,28.00
2019-02-07T07:26:37.082Z,45.60
2019-02-07T07:29:25.546Z,35.75
2019-02-07T07:32:18.586Z,42.60
2019-02-07T07:35:11.132Z,29.00
2019-02-07T07:38:03.701Z,36.00
2019-02-07T07:41:02.583Z,34.20
2019-02-07T07:44:01.156Z,30.60
2019-02-07T07:47:09.160Z,39.25
2019-02-07T07:49:55.152Z,33.80
2019-02-07T07:52:50.462Z,28.00
2019-02-07T07:55:30.007Z,26.75
2019-02-07T07:58:18.347Z,28.60
2019-02-07T08:04:03.743Z,28.00
2019-02-07T08:06:52.095Z,36.60
2019-02-07T08:09:53.542Z,26.60
2019-02-07T08:12:42.196Z,35.00
2019-02-07T08:15:31.155Z,33.40
2019-02-07T08:18:19.706Z,34.60
2019-02-07T08:21:09.996Z,31.80
2019-02-07T08:23:52.607Z,31.40
2019-02-07T08:26:41.467Z,35.00
2019-02-07T08:29:30.122Z,33.00
2019-02-07T08:32:18.776Z,33.25
2019-02-07T08:35:14.389Z,28.60
2019-02-07T08:38:09.906Z,35.80
2019-02-07T08:41:08.694Z,34.60
2019-02-07T08:43:49.371Z,32.00
2019-02-07T08:46:45.283Z,31.80
2019-02-07T08:49:34.978Z,35.00
2019-02-07T08:52:24.746Z,43.00
2019-02-07T08:55:13.393Z,38.60
2019-02-07T08:58:03.173Z,37.40
2019-02-07T09:00:42.920Z,33.25
2019-02-07T09:03:44.883Z,35.00
2019-02-07T09:06:23.807Z,29.00
2019-02-07T09:09:04.892Z,29.00
2019-02-07T09:11:53.638Z,31.60
2019-02-07T09:14:55.604Z,27.50
2019-02-07T09:17:39.462Z,38.40
2019-02-07T09:20:36.085Z,29.00
2019-02-07T09:23:31.701Z,31.00
2019-02-07T09:26:20.147Z,29.00
2019-02-07T09:29:17.913Z,33.80
2019-02-07T09:32:07.693Z,36.00
2019-02-07T09:34:53.172Z,30.60
2019-02-07T09:37:42.953Z,36.00
2019-02-07T09:40:31.608Z,30.00
2019-02-07T09:43:20.053Z,31.80
2019-02-07T09:46:08.912Z,35.00
2019-02-07T09:48:58.280Z,39.50
2019-02-07T09:51:48.164Z,29.50
2019-02-07T09:54:37.943Z,31.00
2019-02-07T09:57:24.549Z,35.00
2019-02-07T10:00:14.330Z,32.25
2019-02-07T10:03:09.945Z,32.60
2019-02-07T10:05:58.700Z,31.00
2019-02-07T10:08:51.656Z,27.00
2019-02-07T10:11:40.613Z,28.40
2019-02-07T10:14:30.085Z,33.50
2019-02-07T10:17:14.963Z,28.80
2019-02-07T10:20:03.709Z,25.40
2019-02-07T10:22:53.521Z,28.60
2019-02-07T10:25:42.465Z,23.75
2019-02-07T10:28:39.039Z,25.80
2019-02-07T10:31:31.635Z,26.60
2019-02-07T10:34:27.656Z,31.20
2019-02-07T10:37:10.476Z,29.60
2019-02-07T10:39:59.460Z,31.60
2019-02-07T10:42:52.212Z,28.60
2019-02-07T10:45:45.574Z,28.00
2019-02-07T10:48:44.530Z,22.40
2019-02-07T10:51:28.792Z,29.80
2019-02-07T10:54:19.595Z,28.00
2019-02-07T10:57:24.663Z,21.00
2019-02-07T11:00:10.177Z,31.60
2019-02-07T11:03:00.147Z,24.00
2019-02-07T11:05:56.736Z,19.50
2019-02-07T11:08:46.005Z,20.40
2019-02-07T11:11:22.881Z,23.40
2019-02-07T11:14:12.558Z,25.20
2019-02-07T11:17:03.774Z,22.25
2019-02-07T11:19:55.087Z,21.75
2019-02-07T11:22:57.155Z,20.80
2019-02-07T11:26:02.089Z,19.60
2019-02-07T11:28:54.121Z,17.40
2019-02-07T11:31:46.786Z,16.00
2019-02-07T11:34:29.891Z,15.80
2019-02-07T11:37:18.649Z,20.00
2019-02-07T11:40:22.353Z,27.80
2019-02-07T11:43:24.521Z,22.40
2019-02-07T11:46:13.072Z,17.80
2019-02-07T11:49:11.970Z,15.60
2019-02-07T11:51:55.010Z,21.00
2019-02-07T11:54:33.504Z,21.00
2019-02-07T11:57:22.872Z,20.00
2019-02-07T12:00:18.293Z,17.25
2019-02-07T12:03:06.733Z,18.20
2019-02-07T12:05:59.379Z,19.00
2019-02-07T12:09:04.725Z,16.50
2019-02-07T12:11:53.685Z,22.60
2019-02-07T12:14:35.476Z,15.60
2019-02-07T12:17:43.485Z,19.20
2019-02-07T12:20:33.266Z,16.75
2019-02-07T12:23:21.711Z,21.25
2019-02-07T12:26:02.688Z,19.00
2019-02-07T12:28:55.355Z,20.20
2019-02-07T12:31:51.154Z,23.20
2019-02-07T12:34:33.561Z,24.00
2019-02-07T12:37:15.659Z,22.00
2019-02-07T12:40:23.974Z,19.00
2019-02-07T12:43:12.627Z,27.80
2019-02-07T12:45:58.519Z,22.00
2019-02-07T12:49:00.711Z,27.00
2019-02-07T12:51:42.992Z,19.80
2019-02-07T12:54:25.427Z,22.40
2019-02-07T12:57:15.279Z,18.20
2019-02-07T13:00:17.245Z,16.40
2019-02-07T13:03:16.446Z,22.00
2019-02-07T13:06:13.393Z,20.40
2019-02-07T13:09:16.280Z,21.00
2019-02-07T13:12:04.215Z,17.00
2019-02-07T13:14:57.028Z,18.60
2019-02-07T13:17:52.890Z,19.75
2019-02-07T13:20:42.481Z,23.50
2019-02-07T13:23:32.157Z,13.50
2019-02-07T13:26:20.910Z,17.60
2019-02-07T13:29:10.068Z,17.80
2019-02-07T13:32:09.265Z,18.80
2019-02-07T13:34:58.127Z,18.40
2019-02-07T13:37:39.226Z,20.50
2019-02-07T13:40:29.076Z,13.50
2019-02-07T13:43:10.768Z,23.00
2019-02-07T13:46:03.312Z,21.00
2019-02-07T13:48:47.055Z,19.40
2019-02-07T13:51:49.326Z,23.60
2019-02-07T13:54:36.046Z,18.00
2019-02-07T13:57:29.907Z,16.60
2019-02-07T14:00:18.867Z,19.00
2019-02-07T14:03:08.545Z,16.00
2019-02-07T14:05:59.684Z,20.00
2019-02-07T14:08:48.615Z,21.00
2019-02-07T14:11:29.794Z,21.80
2019-02-07T14:14:34.630Z,24.40
2019-02-07T14:17:30.447Z,24.50
2019-02-07T14:20:19.101Z,25.60
2019-02-07T14:23:07.446Z,30.00
2019-02-07T14:26:06.239Z,24.00
2019-02-07T14:28:54.688Z,19.60
2019-02-07T14:31:45.490Z,25.40
2019-02-07T14:34:47.559Z,27.80
2019-02-07T14:37:40.101Z,19.80
2019-02-07T14:40:37.358Z,27.00
2019-02-07T14:43:27.143Z,28.20
2019-02-07T14:46:19.887Z,27.60
2019-02-07T14:48:50.612Z,20.80
2019-02-07T14:51:21.275Z,22.20
2019-02-07T14:53:52.049Z,22.50
2019-02-07T14:56:22.747Z,26.40
2019-02-07T14:58:53.946Z,24.00
2019-02-07T15:01:24.723Z,26.00
2019-02-07T15:03:55.604Z,20.20
2019-02-07T15:06:26.337Z,27.80
2019-02-07T15:08:57.170Z,23.25
2019-02-07T15:11:28.271Z,24.00
2019-02-07T15:13:59.077Z,23.40
2019-02-07T15:16:29.873Z,21.00
2019-02-07T15:19:00.430Z,19.00
2019-02-07T15:21:30.969Z,28.80
2019-02-07T15:24:01.906Z,31.00
2019-02-07T15:26:32.665Z,26.00
2019-02-07T15:29:03.655Z,60.00
2019-02-07T15:31:34.441Z,39.20
2019-02-07T15:34:05.744Z,29.40
2019-02-07T15:36:36.395Z,54.60
2019-02-07T15:39:09.119Z,31.00
2019-02-07T15:41:39.947Z,31.60
2019-02-07T15:44:10.775Z,27.00
2019-02-07T15:46:41.476Z,28.60
2019-02-07T15:49:12.264Z,27.00
2019-02-07T15:51:42.972Z,33.00
2019-02-07T15:54:13.737Z,33.60
2019-02-07T15:56:44.467Z,28.40
2019-02-07T15:59:43.428Z,29.00
2019-02-07T16:02:21.849Z,26.20
2019-02-07T16:04:52.816Z,21.40
2019-02-07T16:07:23.339Z,45.00
2019-02-07T16:09:54.194Z,38.40
2019-02-07T16:12:25.286Z,40.40
2019-02-07T16:14:56.067Z,54.00
2019-02-07T16:17:26.778Z,32.60
2019-02-07T16:19:57.670Z,44.20
2019-02-07T16:22:28.530Z,30.40
2019-02-07T16:24:59.335Z,36.25
2019-02-07T16:27:30.276Z,32.50
2019-02-07T16:30:01.210Z,40.50
2019-02-07T16:32:31.811Z,34.00
2019-02-07T16:35:02.546Z,26.40
2019-02-07T16:37:33.666Z,30.00
2019-02-07T16:40:04.395Z,35.80
2019-02-07T16:42:35.069Z,27.00
2019-02-07T16:45:08.071Z,25.80
2019-02-07T16:47:38.839Z,23.40
2019-02-07T16:50:11.778Z,24.00
2019-02-07T16:52:42.371Z,31.50
2019-02-07T16:55:13.262Z,27.00
2019-02-07T16:57:44.137Z,25.00
2019-02-07T17:00:17.363Z,21.80
2019-02-07T17:02:48.118Z,20.00
2019-02-07T17:05:19.772Z,35.00
2019-02-07T17:07:53.156Z,32.75
2019-02-07T17:10:25.313Z,27.50
2019-02-07T17:12:56.081Z,25.00
2019-02-07T17:15:26.750Z,43.20
2019-02-07T17:17:57.774Z,38.50
2019-02-07T17:20:29.802Z,35.60
2019-02-07T17:23:00.563Z,38.60
2019-02-07T17:25:31.335Z,36.00
2019-02-07T17:28:02.135Z,43.60
2019-02-07T17:30:33.227Z,34.80
2019-02-07T17:33:03.923Z,32.60
2019-02-07T17:35:35.811Z,34.00
2019-02-07T17:38:06.514Z,26.00
2019-02-07T17:40:37.071Z,30.40
2019-02-07T17:43:07.747Z,40.40
2019-02-07T17:45:38.518Z,35.00
2019-02-07T17:48:09.338Z,30.50
2019-02-07T17:50:40.213Z,35.40
2019-02-07T17:53:10.899Z,34.80
2019-02-07T17:55:41.809Z,38.00
2019-02-07T17:58:12.871Z,31.60
2019-02-07T18:00:52.976Z,41.20
2019-02-07T18:03:23.919Z,34.40
2019-02-07T18:05:54.739Z,45.00
2019-02-07T18:08:25.507Z,40.80
2019-02-07T18:10:56.446Z,41.20
2019-02-07T18:13:27.238Z,38.80
2019-02-07T18:15:57.979Z,34.60
2019-02-07T18:18:28.779Z,37.00
2019-02-07T18:20:59.570Z,39.00
2019-02-07T18:23:30.578Z,41.00
2019-02-07T18:26:01.431Z,37.00
2019-02-07T18:28:32.047Z,28.00
2019-02-07T18:31:02.894Z,34.20
2019-02-07T18:33:33.603Z,29.60
2019-02-07T18:36:04.391Z,37.00
2019-02-07T18:38:34.964Z,33.60
2019-02-07T18:41:05.727Z,40.20
2019-02-07T18:43:36.315Z,37.60
2019-02-07T18:46:07.090Z,34.80
2019-02-07T18:48:37.853Z,34.00
2019-02-07T18:51:08.662Z,38.00
2019-02-07T18:53:39.439Z,36.00
2019-02-07T18:56:10.226Z,43.40
2019-02-07T18:58:40.801Z,50.25
2019-02-07T19:01:11.592Z,39.50
2019-02-07T19:03:42.379Z,66.60
2019-02-07T19:06:13.178Z,48.00
2019-02-07T19:08:43.939Z,41.25
2019-02-07T19:11:14.742Z,47.60
2019-02-07T19:13:45.422Z,51.00
2019-02-07T19:16:17.523Z,52.50
2019-02-07T19:18:48.262Z,41.00
2019-02-07T19:21:19.069Z,68.00
2019-02-07T19:23:49.814Z,68.40
2019-02-07T19:26:20.695Z,65.60
2019-02-07T19:28:51.361Z,69.00
2019-02-07T19:31:22.093Z,65.60
2019-02-07T19:33:52.810Z,69.00
2019-02-07T19:36:23.621Z,80.80
2019-02-07T19:38:54.401Z,70.00
2019-02-07T19:41:25.283Z,63.25
2019-02-07T19:43:56.033Z,57.50
2019-02-07T19:46:26.982Z,53.00
2019-02-07T19:48:57.831Z,54.40
2019-02-07T19:51:28.639Z,50.00
2019-02-07T19:53:59.508Z,51.50
2019-02-07T19:56:30.412Z,60.00
2019-02-07T19:59:01.193Z,61.00
2019-02-07T20:01:31.998Z,60.00
2019-02-07T20:04:02.643Z,81.20
2019-02-07T20:06:33.452Z,70.75
2019-02-07T20:09:04.723Z,71.25
2019-02-07T20:11:35.653Z,101.75
2019-02-07T20:14:06.599Z,74.20
2019-02-07T20:16:37.350Z,178.60
2019-02-07T20:19:08.176Z,76.00
2019-02-07T20:21:39.025Z,83.75
2019-02-07T20:24:09.731Z,52.60
2019-02-07T20:26:41.667Z,52.40
2019-02-07T20:29:12.866Z,57.80
2019-02-07T20:31:43.646Z,58.00
2019-02-07T20:34:14.501Z,61.00
2019-02-07T20:37:09.082Z,62.25
2019-02-07T20:39:39.941Z,57.40
2019-02-07T20:42:10.683Z,57.60
2019-02-07T20:44:41.392Z,50.80
2019-02-07T20:47:12.198Z,56.20
2019-02-07T20:49:42.941Z,59.00
2019-02-07T20:52:13.799Z,60.80
2019-02-07T20:54:44.327Z,67.60
2019-02-07T20:57:15.289Z,66.50
2019-02-07T20:59:46.031Z,61.00
2019-02-07T21:02:16.782Z,59.80
2019-02-07T21:04:47.449Z,58.00
2019-02-07T21:07:18.375Z,49.00
2019-02-07T21:09:48.976Z,53.60
2019-02-07T21:12:20.037Z,58.00
2019-02-07T21:14:50.875Z,56.00
2019-02-07T21:17:21.556Z,62.00
2019-02-07T21:19:52.252Z,60.20
2019-02-07T21:22:23.481Z,57.75
2019-02-07T21:24:54.195Z,54.00
2019-02-07T21:27:25.010Z,61.20
2019-02-07T21:29:55.717Z,60.80
2019-02-07T21:32:26.883Z,51.50
2019-02-07T21:34:57.939Z,61.80
2019-02-07T21:37:29.083Z,60.20
2019-02-07T21:39:59.778Z,62.80
2019-02-07T21:42:30.410Z,57.40
2019-02-07T21:45:01.223Z,62.50
2019-02-07T21:47:33.075Z,55.20
2019-02-07T21:50:03.744Z,63.40
2019-02-07T21:52:41.652Z,61.50
2019-02-07T21:55:07.475Z,53.00
2019-02-07T21:57:38.336Z,62.50
2019-02-07T22:00:16.201Z,63.00
2019-02-07T22:02:47.186Z,58.00
2019-02-07T22:05:17.885Z,59.40
2019-02-07T22:07:48.637Z,59.60
2019-02-07T22:10:19.232Z,47.25
2019-02-07T22:12:50.032Z,58.20
2019-02-07T22:15:21.802Z,62.00
2019-02-07T22:17:54.454Z,59.00
2019-02-07T22:20:25.742Z,60.80
2019-02-07T22:22:56.666Z,56.40
2019-02-07T22:25:27.523Z,60.60
2019-02-07T22:27:58.127Z,58.50
2019-02-07T22:30:31.137Z,52.80
2019-02-07T22:33:01.884Z,61.00
2019-02-07T22:35:32.596Z,64.20
2019-02-07T22:38:03.416Z,46.75
2019-02-07T22:40:34.337Z,56.60
2019-02-07T22:43:05.165Z,49.60
2019-02-07T22:45:35.871Z,61.00
2019-02-07T22:48:07.381Z,53.80
2019-02-07T22:50:37.895Z,58.00
2019-02-07T22:53:08.707Z,55.20
2019-02-07T22:55:39.471Z,53.25
2019-02-07T22:58:10.557Z,58.40
2019-02-07T23:01:19.431Z,58.75
2019-02-07T23:03:55.333Z,52.20
2019-02-07T23:06:26.147Z,53.25
2019-02-07T23:08:57.067Z,55.20
2019-02-07T23:11:27.715Z,48.80
2019-02-07T23:13:58.530Z,58.80
2019-02-07T23:16:29.689Z,49.00
2019-02-07T23:19:00.502Z,51.20
2019-02-07T23:21:31.337Z,53.60
2019-02-07T23:24:02.145Z,45.20
2019-02-07T23:26:33.039Z,53.00
2019-02-07T23:29:03.842Z,54.80
2019-02-07T23:31:34.602Z,54.00
2019-02-07T23:34:05.795Z,56.00
2019-02-07T23:36:36.587Z,54.60
2019-02-07T23:39:09.182Z,51.80
2019-02-07T23:41:39.896Z,45.00
2019-02-07T23:44:11.037Z,47.80
2019-02-07T23:46:41.871Z,55.00
2019-02-07T23:49:12.685Z,57.20
2019-02-07T23:51:43.359Z,53.25
2019-02-07T23:54:14.139Z,47.40
2019-02-07T23:56:44.832Z,53.75
2019-02-07T23:59:15.711Z,49.00
